createdAt,value
2023-02-09T00:01:18.242Z,27.37
2023-02-09T00:06:15.404Z,31.60
2023-02-09T00:11:10.688Z,38.13
2023-02-09T00:16:05.740Z,37.70
2023-02-09T00:21:03.520Z,29.90
2023-02-09T00:25:59.576Z,27.43
2023-02-09T00:30:53.043Z,26.27
2023-02-09T00:35:46.757Z,28.13
2023-02-09T00:40:42.863Z,27.20
2023-02-09T00:45:37.202Z,26.83
2023-02-09T00:50:33.666Z,27.23
2023-02-09T00:55:29.069Z,26.37
2023-02-09T01:00:24.065Z,30.10
2023-02-09T01:05:17.930Z,27.63
2023-02-09T01:10:14.727Z,27.33
2023-02-09T01:15:11.451Z,28.73
2023-02-09T01:20:09.726Z,25.60
2023-02-09T01:25:03.434Z,29.13
2023-02-09T01:29:56.840Z,26.57
2023-02-09T01:34:52.725Z,25.90
2023-02-09T01:39:47.670Z,27.03
2023-02-09T01:45:16.077Z,29.50
2023-02-09T01:50:10.321Z,30.33
2023-02-09T01:55:11.679Z,29.17
2023-02-09T02:00:10.304Z,28.13
2023-02-09T02:05:05.894Z,27.87
2023-02-09T02:09:59.768Z,27.30
2023-02-09T02:14:54.493Z,30.77
2023-02-09T02:20:53.664Z,29.40
2023-02-09T02:26:49.661Z,28.23
2023-02-09T02:32:23.104Z,26.53
2023-02-09T02:37:43.414Z,32.53
2023-02-09T02:42:53.465Z,29.93
2023-02-09T02:47:59.430Z,29.83
2023-02-09T02:52:58.729Z,31.00
2023-02-09T02:57:57.695Z,28.93
2023-02-09T03:03:01.166Z,31.43
2023-02-09T03:07:57.056Z,29.33
2023-02-09T03:13:21.757Z,34.67
2023-02-09T03:23:58.195Z,31.37
2023-02-09T03:28:57.872Z,30.63
2023-02-09T03:33:53.088Z,33.93
2023-02-09T03:38:46.779Z,30.77
2023-02-09T03:43:57.635Z,28.67
2023-02-09T03:48:52.387Z,33.97
2023-02-09T03:53:47.230Z,33.83
2023-02-09T03:58:45.712Z,31.17
2023-02-09T04:03:40.898Z,31.30
2023-02-09T04:08:37.737Z,34.27
2023-02-09T04:13:42.236Z,32.37
2023-02-09T04:18:38.491Z,30.60
2023-02-09T04:23:32.060Z,31.60
2023-02-09T04:28:27.006Z,34.03
2023-02-09T04:33:20.505Z,28.93
2023-02-09T04:38:29.097Z,30.97
2023-02-09T04:43:38.581Z,29.43
2023-02-09T04:48:46.771Z,31.17
2023-02-09T04:53:48.824Z,31.70
2023-02-09T04:59:10.385Z,31.33
2023-02-09T05:04:04.033Z,34.50
2023-02-09T05:09:08.519Z,29.73
2023-02-09T05:14:03.295Z,30.40
2023-02-09T05:18:56.620Z,30.43
2023-02-09T05:23:49.994Z,32.93
2023-02-09T05:28:43.308Z,31.87
2023-02-09T05:33:38.080Z,36.10
2023-02-09T05:38:31.429Z,34.30
2023-02-09T05:43:24.709Z,32.57
2023-02-09T05:48:18.719Z,34.87
2023-02-09T05:53:15.206Z,41.53
2023-02-09T05:58:08.701Z,48.53
2023-02-09T06:03:26.538Z,35.30
2023-02-09T06:08:29.832Z,35.17
2023-02-09T06:13:23.237Z,33.17
2023-02-09T06:18:16.821Z,32.27
2023-02-09T06:23:10.196Z,34.73
2023-02-09T06:28:09.892Z,31.97
2023-02-09T06:33:03.252Z,32.90
2023-02-09T06:37:59.016Z,36.77
2023-02-09T06:43:07.629Z,32.93
2023-02-09T06:48:02.605Z,38.33
2023-02-09T06:52:56.134Z,32.03
2023-02-09T06:57:49.593Z,36.77
2023-02-09T07:02:43.850Z,38.43
2023-02-09T07:07:39.322Z,33.80
2023-02-09T07:12:32.769Z,38.60
2023-02-09T07:17:26.242Z,37.23
2023-02-09T07:22:20.786Z,40.00
2023-02-09T07:27:15.939Z,36.67
2023-02-09T07:32:09.797Z,38.83
2023-02-09T07:37:04.622Z,38.63
2023-02-09T07:41:58.138Z,41.17
2023-02-09T07:47:14.714Z,37.93
2023-02-09T07:52:38.700Z,35.97
2023-02-09T07:57:47.288Z,36.87
2023-02-09T08:03:11.701Z,38.77
2023-02-09T08:14:53.615Z,36.90
2023-02-09T08:20:34.632Z,41.23
2023-02-09T08:26:32.596Z,41.87
2023-02-09T08:31:53.775Z,38.67
2023-02-09T08:37:04.345Z,41.73
2023-02-09T08:42:23.626Z,40.10
2023-02-09T08:47:33.481Z,42.83
2023-02-09T08:52:54.402Z,42.20
2023-02-09T08:58:10.013Z,42.07
2023-02-09T09:03:32.481Z,43.53
2023-02-09T09:08:56.573Z,40.30
2023-02-09T09:14:16.175Z,46.50
2023-02-09T10:48:58.866Z,43.47
2023-02-09T11:00:49.188Z,43.23
2023-02-09T11:06:35.995Z,43.97
2023-02-09T11:17:49.458Z,43.97
2023-02-09T11:24:01.916Z,43.23
2023-02-09T11:35:29.553Z,43.23
2023-02-09T11:46:27.549Z,42.97
2023-02-09T11:51:23.794Z,40.50
2023-02-09T11:56:23.556Z,44.13
2023-02-09T12:01:36.056Z,41.40
2023-02-09T12:06:42.095Z,40.37
2023-02-09T12:11:50.813Z,41.40
2023-02-09T12:16:55.214Z,41.03
2023-02-09T12:21:50.667Z,45.30
2023-02-09T12:26:46.920Z,44.53
2023-02-09T12:32:26.449Z,41.37
2023-02-09T12:37:29.279Z,43.87
2023-02-09T12:42:31.057Z,38.27
2023-02-09T12:47:58.722Z,44.83
2023-02-09T12:53:45.364Z,43.00
2023-02-09T12:58:54.359Z,41.10
2023-02-09T13:03:59.998Z,48.63
2023-02-09T13:08:58.325Z,43.40
2023-02-09T13:13:57.392Z,41.90
2023-02-09T13:19:07.758Z,47.87
2023-02-09T13:24:11.616Z,42.63
2023-02-09T13:29:19.761Z,42.60
2023-02-09T13:34:35.325Z,44.80
2023-02-09T13:39:39.825Z,44.43
2023-02-09T13:49:41.333Z,44.90
2023-02-09T13:54:34.757Z,48.30
2023-02-09T13:59:28.479Z,53.77
2023-02-09T14:04:26.573Z,46.07
2023-02-09T14:09:27.797Z,45.03
2023-02-09T14:14:50.825Z,42.07
2023-02-09T14:19:57.736Z,38.30
2023-02-09T14:24:55.071Z,42.97
2023-02-09T14:29:51.004Z,43.13
2023-02-09T14:34:44.566Z,41.40
2023-02-09T14:39:56.637Z,47.67
2023-02-09T14:44:55.984Z,43.87
2023-02-09T14:49:49.398Z,44.33
2023-02-09T14:54:51.460Z,43.97
2023-02-09T14:59:48.739Z,44.03
2023-02-09T15:04:42.347Z,43.23
2023-02-09T15:09:41.283Z,42.20
2023-02-09T15:14:46.849Z,44.03
2023-02-09T15:19:41.828Z,42.83
2023-02-09T15:24:35.661Z,40.90
2023-02-09T15:29:29.437Z,38.07
2023-02-09T15:34:23.580Z,37.87
2023-02-09T15:39:23.215Z,40.50
2023-02-09T15:44:37.564Z,41.03
2023-02-09T15:49:31.453Z,45.97
2023-02-09T15:54:33.922Z,35.17
2023-02-09T15:59:27.513Z,49.37
2023-02-09T16:04:21.311Z,42.83
2023-02-09T16:09:22.356Z,43.63
2023-02-09T16:14:21.185Z,43.27
2023-02-09T16:19:14.811Z,54.40
2023-02-09T16:24:22.207Z,52.70
2023-02-09T16:29:17.412Z,43.57
2023-02-09T16:34:15.467Z,41.77
2023-02-09T16:39:18.635Z,41.57
2023-02-09T16:44:21.386Z,34.43
2023-02-09T16:49:32.960Z,37.50
2023-02-09T16:54:26.343Z,39.47
2023-02-09T16:59:22.381Z,37.30
2023-02-09T17:04:15.865Z,37.50
2023-02-09T17:09:16.341Z,42.83
2023-02-09T17:14:10.311Z,36.57
2023-02-09T17:19:13.957Z,38.77
2023-02-09T17:24:14.036Z,40.37
2023-02-09T17:29:07.590Z,40.03
2023-02-09T17:34:08.012Z,38.83
2023-02-09T17:39:05.551Z,43.40
2023-02-09T17:44:22.386Z,39.27
2023-02-09T17:49:23.872Z,43.10
2023-02-09T17:54:19.938Z,45.23
2023-02-09T17:59:14.290Z,48.50
2023-02-09T18:04:17.463Z,45.07
2023-02-09T18:09:21.007Z,38.93
2023-02-09T18:14:19.305Z,41.63
2023-02-09T18:19:13.623Z,44.27
2023-02-09T18:24:08.071Z,41.63
2023-02-09T18:29:02.984Z,40.50
2023-02-09T18:33:58.159Z,42.53
2023-02-09T18:38:53.506Z,69.17
2023-02-09T18:43:47.013Z,97.40
2023-02-09T18:48:41.901Z,48.73
2023-02-09T18:53:35.400Z,48.57
2023-02-09T18:58:28.900Z,47.60
2023-02-09T19:03:31.736Z,49.43
2023-02-09T19:08:26.568Z,55.53
2023-02-09T19:13:52.111Z,52.17
2023-02-09T19:19:11.994Z,50.53
2023-02-09T19:24:07.461Z,46.83
2023-02-09T19:34:29.060Z,37.10
2023-02-09T19:39:23.852Z,36.70
2023-02-09T19:44:17.569Z,36.07
2023-02-09T19:49:19.204Z,32.23
2023-02-09T19:54:15.790Z,38.27
2023-02-09T19:59:16.519Z,36.47
2023-02-09T20:04:14.571Z,35.27
2023-02-09T20:09:12.478Z,36.33
2023-02-09T20:14:07.237Z,31.73
2023-02-09T20:19:02.517Z,31.80
2023-02-09T20:23:58.278Z,30.13
2023-02-09T20:28:52.235Z,27.13
2023-02-09T20:33:45.938Z,31.00
2023-02-09T20:38:51.707Z,30.40
2023-02-09T20:44:13.241Z,32.80
2023-02-09T20:49:09.328Z,30.43
2023-02-09T20:54:04.810Z,29.50
2023-02-09T20:59:02.362Z,32.57
2023-02-09T21:03:58.881Z,31.60
2023-02-09T21:08:53.282Z,38.73
2023-02-09T21:13:49.684Z,32.43
2023-02-09T21:18:44.433Z,33.00
2023-02-09T21:23:38.054Z,34.77
2023-02-09T21:28:31.937Z,32.10
2023-02-09T21:33:27.217Z,33.30
2023-02-09T21:38:20.577Z,33.80
2023-02-09T21:43:13.921Z,34.53
2023-02-09T21:48:07.463Z,33.57
2023-02-09T21:53:03.075Z,35.10
2023-02-09T21:57:56.385Z,28.53
2023-02-09T22:02:54.401Z,31.43
2023-02-09T22:07:48.377Z,74.63
2023-02-09T22:12:43.131Z,53.90
2023-02-09T22:17:38.541Z,48.57
2023-02-09T22:22:32.214Z,44.17
2023-02-09T22:27:25.661Z,39.33
2023-02-09T22:32:21.266Z,44.33
2023-02-09T22:37:14.596Z,40.13
2023-02-09T22:42:08.253Z,34.20
2023-02-09T22:47:01.925Z,32.43
2023-02-09T22:51:56.653Z,27.97
2023-02-09T22:56:50.099Z,29.60
2023-02-09T23:01:44.453Z,27.80
2023-02-09T23:06:38.198Z,27.20
2023-02-09T23:11:33.577Z,27.30
2023-02-09T23:16:30.035Z,28.00
2023-02-09T23:21:27.563Z,27.80
2023-02-09T23:26:22.272Z,26.13
2023-02-09T23:31:20.858Z,27.83
2023-02-09T23:36:18.286Z,27.53
2023-02-09T23:41:15.145Z,32.20
2023-02-09T23:46:13.276Z,27.67
2023-02-09T23:51:12.345Z,26.53
2023-02-09T23:56:06.594Z,27.53
